sensor_id;sensor_type;location;lat;lon;timestamp;temperature;humidity
12827;DHT22;66927;48.812;9.118;2023-06-14T00:00:29;19.70;69.50
12827;DHT22;66927;48.812;9.118;2023-06-14T00:02:56;19.70;70.20
12827;DHT22;66927;48.812;9.118;2023-06-14T00:05:22;19.70;69.80
12827;DHT22;66927;48.812;9.118;2023-06-14T00:07:48;19.80;69.50
12827;DHT22;66927;48.812;9.118;2023-06-14T00:10:14;19.70;69.50
12827;DHT22;66927;48.812;9.118;2023-06-14T00:12:40;19.70;69.70
12827;DHT22;66927;48.812;9.118;2023-06-14T00:15:07;19.70;69.10
12827;DHT22;66927;48.812;9.118;2023-06-14T00:17:35;19.70;69.00
12827;DHT22;66927;48.812;9.118;2023-06-14T00:20:03;19.80;69.70
12827;DHT22;66927;48.812;9.118;2023-06-14T00:22:30;19.70;69.70
12827;DHT22;66927;48.812;9.118;2023-06-14T00:24:57;19.80;69.80
12827;DHT22;66927;48.812;9.118;2023-06-14T00:27:22;19.70;69.90
12827;DHT22;66927;48.812;9.118;2023-06-14T00:29:49;19.70;70.20
12827;DHT22;66927;48.812;9.118;2023-06-14T00:32:15;19.70;70.60
12827;DHT22;66927;48.812;9.118;2023-06-14T00:34:41;19.70;70.80
12827;DHT22;66927;48.812;9.118;2023-06-14T00:37:06;19.60;71.00
12827;DHT22;66927;48.812;9.118;2023-06-14T00:39:32;19.60;71.20
12827;DHT22;66927;48.812;9.118;2023-06-14T00:41:58;19.60;71.50
12827;DHT22;66927;48.812;9.118;2023-06-14T00:44:24;19.60;71.70
12827;DHT22;66927;48.812;9.118;2023-06-14T00:46:51;19.50;71.60
12827;DHT22;66927;48.812;9.118;2023-06-14T00:49:17;19.50;71.60
12827;DHT22;66927;48.812;9.118;2023-06-14T00:51:45;19.40;71.70
12827;DHT22;66927;48.812;9.118;2023-06-14T00:54:10;19.30;71.60
12827;DHT22;66927;48.812;9.118;2023-06-14T00:56:37;19.20;71.60
12827;DHT22;66927;48.812;9.118;2023-06-14T00:59:03;19.20;71.90
12827;DHT22;66927;48.812;9.118;2023-06-14T01:01:30;19.10;71.70
12827;DHT22;66927;48.812;9.118;2023-06-14T01:04:02;19.00;71.90
12827;DHT22;66927;48.812;9.118;2023-06-14T01:06:38;19.00;72.30
12827;DHT22;66927;48.812;9.118;2023-06-14T01:12:13;19.00;72.40
12827;DHT22;66927;48.812;9.118;2023-06-14T01:14:41;19.00;72.40
12827;DHT22;66927;48.812;9.118;2023-06-14T01:17:08;19.00;72.30
12827;DHT22;66927;48.812;9.118;2023-06-14T01:19:44;19.00;72.70
12827;DHT22;66927;48.812;9.118;2023-06-14T01:22:11;19.00;72.60
12827;DHT22;66927;48.812;9.118;2023-06-14T01:24:37;19.00;72.70
12827;DHT22;66927;48.812;9.118;2023-06-14T01:27:05;19.00;72.70
12827;DHT22;66927;48.812;9.118;2023-06-14T01:29:33;19.00;72.70
12827;DHT22;66927;48.812;9.118;2023-06-14T01:31:59;19.00;72.70
12827;DHT22;66927;48.812;9.118;2023-06-14T01:34:26;19.00;72.90
12827;DHT22;66927;48.812;9.118;2023-06-14T01:36:53;19.00;72.80
12827;DHT22;66927;48.812;9.118;2023-06-14T01:39:22;19.00;72.80
12827;DHT22;66927;48.812;9.118;2023-06-14T01:41:49;18.90;73.00
12827;DHT22;66927;48.812;9.118;2023-06-14T01:44:16;18.90;73.00
12827;DHT22;66927;48.812;9.118;2023-06-14T01:46:43;18.90;73.10
12827;DHT22;66927;48.812;9.118;2023-06-14T01:49:11;18.90;72.90
12827;DHT22;66927;48.812;9.118;2023-06-14T01:51:36;18.90;73.10
12827;DHT22;66927;48.812;9.118;2023-06-14T01:54:02;18.90;73.10
12827;DHT22;66927;48.812;9.118;2023-06-14T01:56:28;18.80;73.20
12827;DHT22;66927;48.812;9.118;2023-06-14T01:58:53;18.80;72.80
12827;DHT22;66927;48.812;9.118;2023-06-14T02:01:20;18.80;72.50
12827;DHT22;66927;48.812;9.118;2023-06-14T02:03:47;18.70;73.10
12827;DHT22;66927;48.812;9.118;2023-06-14T02:06:13;18.70;73.30
12827;DHT22;66927;48.812;9.118;2023-06-14T02:08:41;18.80;73.20
12827;DHT22;66927;48.812;9.118;2023-06-14T02:11:09;18.80;73.10
12827;DHT22;66927;48.812;9.118;2023-06-14T02:13:35;18.80;73.20
12827;DHT22;66927;48.812;9.118;2023-06-14T02:16:01;18.70;73.30
12827;DHT22;66927;48.812;9.118;2023-06-14T02:18:27;18.70;73.70
12827;DHT22;66927;48.812;9.118;2023-06-14T02:20:53;18.60;73.70
12827;DHT22;66927;48.812;9.118;2023-06-14T02:23:19;18.50;74.20
12827;DHT22;66927;48.812;9.118;2023-06-14T02:25:44;18.50;74.70
12827;DHT22;66927;48.812;9.118;2023-06-14T02:28:11;18.50;74.70
12827;DHT22;66927;48.812;9.118;2023-06-14T02:30:37;18.40;74.90
12827;DHT22;66927;48.812;9.118;2023-06-14T02:33:02;18.50;75.10
12827;DHT22;66927;48.812;9.118;2023-06-14T02:35:29;18.50;75.00
12827;DHT22;66927;48.812;9.118;2023-06-14T02:37:55;18.50;74.80
12827;DHT22;66927;48.812;9.118;2023-06-14T02:40:20;18.50;74.70
12827;DHT22;66927;48.812;9.118;2023-06-14T02:42:46;18.40;74.70
12827;DHT22;66927;48.812;9.118;2023-06-14T02:45:12;18.40;75.20
12827;DHT22;66927;48.812;9.118;2023-06-14T02:47:37;18.40;75.20
12827;DHT22;66927;48.812;9.118;2023-06-14T02:50:03;18.40;75.40
12827;DHT22;66927;48.812;9.118;2023-06-14T02:52:29;18.40;75.60
12827;DHT22;66927;48.812;9.118;2023-06-14T02:54:55;18.30;75.60
12827;DHT22;66927;48.812;9.118;2023-06-14T02:57:22;18.20;75.80
12827;DHT22;66927;48.812;9.118;2023-06-14T02:59:48;18.10;76.10
12827;DHT22;66927;48.812;9.118;2023-06-14T03:02:14;18.00;76.40
12827;DHT22;66927;48.812;9.118;2023-06-14T03:04:40;18.00;76.40
12827;DHT22;66927;48.812;9.118;2023-06-14T03:07:06;18.00;76.30
12827;DHT22;66927;48.812;9.118;2023-06-14T03:09:38;18.00;76.70
12827;DHT22;66927;48.812;9.118;2023-06-14T03:12:04;18.00;76.90
12827;DHT22;66927;48.812;9.118;2023-06-14T03:14:32;18.00;76.90
12827;DHT22;66927;48.812;9.118;2023-06-14T03:16:58;17.90;77.10
12827;DHT22;66927;48.812;9.118;2023-06-14T03:19:24;17.90;76.80
12827;DHT22;66927;48.812;9.118;2023-06-14T03:21:51;17.90;77.30
12827;DHT22;66927;48.812;9.118;2023-06-14T03:24:17;17.80;77.10
12827;DHT22;66927;48.812;9.118;2023-06-14T03:26:43;17.80;77.20
12827;DHT22;66927;48.812;9.118;2023-06-14T03:29:10;17.80;77.30
12827;DHT22;66927;48.812;9.118;2023-06-14T03:31:36;17.80;77.70
12827;DHT22;66927;48.812;9.118;2023-06-14T03:34:02;17.80;77.90
12827;DHT22;66927;48.812;9.118;2023-06-14T03:36:28;17.80;77.80
12827;DHT22;66927;48.812;9.118;2023-06-14T03:38:54;17.80;78.10
12827;DHT22;66927;48.812;9.118;2023-06-14T03:41:20;17.70;78.20
12827;DHT22;66927;48.812;9.118;2023-06-14T03:43:46;17.70;78.60
12827;DHT22;66927;48.812;9.118;2023-06-14T03:46:12;17.60;78.90
12827;DHT22;66927;48.812;9.118;2023-06-14T03:48:37;17.70;78.90
12827;DHT22;66927;48.812;9.118;2023-06-14T03:51:04;17.70;79.00
12827;DHT22;66927;48.812;9.118;2023-06-14T03:53:30;17.70;78.90
12827;DHT22;66927;48.812;9.118;2023-06-14T03:55:56;17.80;78.90
12827;DHT22;66927;48.812;9.118;2023-06-14T03:58:22;17.80;79.10
12827;DHT22;66927;48.812;9.118;2023-06-14T04:00:48;17.80;79.30
12827;DHT22;66927;48.812;9.118;2023-06-14T04:03:14;17.70;79.50
12827;DHT22;66927;48.812;9.118;2023-06-14T04:05:41;17.60;79.70
12827;DHT22;66927;48.812;9.118;2023-06-14T04:08:14;17.60;79.50
12827;DHT22;66927;48.812;9.118;2023-06-14T04:10:41;17.70;79.50
12827;DHT22;66927;48.812;9.118;2023-06-14T04:13:07;17.70;79.70
12827;DHT22;66927;48.812;9.118;2023-06-14T04:15:32;17.80;79.80
12827;DHT22;66927;48.812;9.118;2023-06-14T04:17:59;17.80;80.00
12827;DHT22;66927;48.812;9.118;2023-06-14T04:20:24;17.70;80.40
12827;DHT22;66927;48.812;9.118;2023-06-14T04:22:51;17.70;80.20
12827;DHT22;66927;48.812;9.118;2023-06-14T04:25:18;17.80;80.60
12827;DHT22;66927;48.812;9.118;2023-06-14T04:27:43;17.70;80.90
12827;DHT22;66927;48.812;9.118;2023-06-14T04:30:09;17.70;80.60
12827;DHT22;66927;48.812;9.118;2023-06-14T04:32:35;17.70;80.50
12827;DHT22;66927;48.812;9.118;2023-06-14T04:35:07;17.70;80.60
12827;DHT22;66927;48.812;9.118;2023-06-14T04:37:33;17.60;81.10
12827;DHT22;66927;48.812;9.118;2023-06-14T04:40:00;17.70;81.60
12827;DHT22;66927;48.812;9.118;2023-06-14T04:42:30;17.70;81.30
12827;DHT22;66927;48.812;9.118;2023-06-14T04:44:57;17.70;81.20
12827;DHT22;66927;48.812;9.118;2023-06-14T04:47:23;17.70;82.00
12827;DHT22;66927;48.812;9.118;2023-06-14T04:49:55;17.70;82.20
12827;DHT22;66927;48.812;9.118;2023-06-14T04:52:21;17.70;82.00
12827;DHT22;66927;48.812;9.118;2023-06-14T04:54:47;17.80;82.40
12827;DHT22;66927;48.812;9.118;2023-06-14T04:57:13;17.80;82.30
12827;DHT22;66927;48.812;9.118;2023-06-14T04:59:40;17.80;82.20
12827;DHT22;66927;48.812;9.118;2023-06-14T05:02:05;17.80;82.50
12827;DHT22;66927;48.812;9.118;2023-06-14T05:04:32;17.80;82.40
12827;DHT22;66927;48.812;9.118;2023-06-14T05:06:58;17.80;82.50
12827;DHT22;66927;48.812;9.118;2023-06-14T05:09:24;17.90;82.20
12827;DHT22;66927;48.812;9.118;2023-06-14T05:11:49;17.90;81.80
12827;DHT22;66927;48.812;9.118;2023-06-14T05:14:15;17.90;81.90
12827;DHT22;66927;48.812;9.118;2023-06-14T05:16:41;17.90;81.50
12827;DHT22;66927;48.812;9.118;2023-06-14T05:19:08;17.90;81.60
12827;DHT22;66927;48.812;9.118;2023-06-14T05:21:36;18.00;81.80
12827;DHT22;66927;48.812;9.118;2023-06-14T05:24:02;18.00;81.80
12827;DHT22;66927;48.812;9.118;2023-06-14T05:26:28;18.00;82.00
12827;DHT22;66927;48.812;9.118;2023-06-14T05:28:57;18.10;82.00
12827;DHT22;66927;48.812;9.118;2023-06-14T05:31:24;18.10;82.00
12827;DHT22;66927;48.812;9.118;2023-06-14T05:33:51;18.10;81.70
12827;DHT22;66927;48.812;9.118;2023-06-14T05:36:17;18.20;81.40
12827;DHT22;66927;48.812;9.118;2023-06-14T05:38:43;18.10;81.40
12827;DHT22;66927;48.812;9.118;2023-06-14T05:41:09;18.10;81.90
12827;DHT22;66927;48.812;9.118;2023-06-14T05:43:34;18.10;81.90
12827;DHT22;66927;48.812;9.118;2023-06-14T05:46:00;18.10;81.90
12827;DHT22;66927;48.812;9.118;2023-06-14T05:48:26;18.10;82.10
12827;DHT22;66927;48.812;9.118;2023-06-14T05:50:51;18.10;81.90
12827;DHT22;66927;48.812;9.118;2023-06-14T05:53:17;18.20;82.00
12827;DHT22;66927;48.812;9.118;2023-06-14T05:55:43;18.10;82.50
12827;DHT22;66927;48.812;9.118;2023-06-14T05:58:08;18.20;82.60
12827;DHT22;66927;48.812;9.118;2023-06-14T06:00:34;18.20;82.50
12827;DHT22;66927;48.812;9.118;2023-06-14T06:02:59;18.30;82.30
12827;DHT22;66927;48.812;9.118;2023-06-14T06:05:26;18.30;82.00
12827;DHT22;66927;48.812;9.118;2023-06-14T06:07:52;18.30;82.00
12827;DHT22;66927;48.812;9.118;2023-06-14T06:10:18;18.40;81.80
12827;DHT22;66927;48.812;9.118;2023-06-14T06:12:43;18.40;81.30
12827;DHT22;66927;48.812;9.118;2023-06-14T06:15:10;18.50;81.20
12827;DHT22;66927;48.812;9.118;2023-06-14T06:17:38;18.50;81.60
12827;DHT22;66927;48.812;9.118;2023-06-14T06:20:04;18.40;82.20
12827;DHT22;66927;48.812;9.118;2023-06-14T06:22:32;18.50;82.10
12827;DHT22;66927;48.812;9.118;2023-06-14T06:24:57;18.50;81.90
12827;DHT22;66927;48.812;9.118;2023-06-14T06:27:23;18.60;81.90
12827;DHT22;66927;48.812;9.118;2023-06-14T06:29:48;18.50;82.20
12827;DHT22;66927;48.812;9.118;2023-06-14T06:32:15;18.40;82.40
12827;DHT22;66927;48.812;9.118;2023-06-14T06:34:41;18.50;82.50
12827;DHT22;66927;48.812;9.118;2023-06-14T06:37:06;18.50;83.20
12827;DHT22;66927;48.812;9.118;2023-06-14T06:39:33;18.50;83.20
12827;DHT22;66927;48.812;9.118;2023-06-14T06:41:58;18.50;83.80
12827;DHT22;66927;48.812;9.118;2023-06-14T06:44:24;18.60;83.70
12827;DHT22;66927;48.812;9.118;2023-06-14T06:46:49;18.60;83.50
12827;DHT22;66927;48.812;9.118;2023-06-14T06:49:15;18.70;83.40
12827;DHT22;66927;48.812;9.118;2023-06-14T06:51:42;18.70;83.40
12827;DHT22;66927;48.812;9.118;2023-06-14T06:54:08;18.70;84.30
12827;DHT22;66927;48.812;9.118;2023-06-14T06:56:34;18.80;84.00
12827;DHT22;66927;48.812;9.118;2023-06-14T06:59:00;18.80;83.80
12827;DHT22;66927;48.812;9.118;2023-06-14T07:01:26;18.80;84.20
12827;DHT22;66927;48.812;9.118;2023-06-14T07:03:54;18.80;85.20
12827;DHT22;66927;48.812;9.118;2023-06-14T07:06:20;18.80;84.90
12827;DHT22;66927;48.812;9.118;2023-06-14T07:08:46;18.90;85.10
12827;DHT22;66927;48.812;9.118;2023-06-14T07:11:14;18.90;84.70
12827;DHT22;66927;48.812;9.118;2023-06-14T07:13:39;18.90;85.50
12827;DHT22;66927;48.812;9.118;2023-06-14T07:16:05;18.80;84.90
12827;DHT22;66927;48.812;9.118;2023-06-14T07:18:32;18.90;85.30
12827;DHT22;66927;48.812;9.118;2023-06-14T07:20:57;19.00;84.70
12827;DHT22;66927;48.812;9.118;2023-06-14T07:23:24;19.00;83.20
12827;DHT22;66927;48.812;9.118;2023-06-14T07:25:50;19.10;82.40
12827;DHT22;66927;48.812;9.118;2023-06-14T07:28:17;19.10;81.00
12827;DHT22;66927;48.812;9.118;2023-06-14T07:30:43;19.10;81.10
12827;DHT22;66927;48.812;9.118;2023-06-14T07:33:09;19.20;82.10
12827;DHT22;66927;48.812;9.118;2023-06-14T07:35:36;19.20;82.00
12827;DHT22;66927;48.812;9.118;2023-06-14T07:38:02;19.20;81.90
12827;DHT22;66927;48.812;9.118;2023-06-14T07:40:28;19.30;81.60
12827;DHT22;66927;48.812;9.118;2023-06-14T07:42:53;19.30;82.60
12827;DHT22;66927;48.812;9.118;2023-06-14T07:45:20;19.40;82.30
12827;DHT22;66927;48.812;9.118;2023-06-14T07:47:46;19.40;82.10
12827;DHT22;66927;48.812;9.118;2023-06-14T07:50:12;19.50;81.80
12827;DHT22;66927;48.812;9.118;2023-06-14T07:52:39;19.50;80.40
12827;DHT22;66927;48.812;9.118;2023-06-14T07:55:05;19.50;79.50
12827;DHT22;66927;48.812;9.118;2023-06-14T07:57:31;19.50;80.20
12827;DHT22;66927;48.812;9.118;2023-06-14T07:59:57;19.60;80.00
12827;DHT22;66927;48.812;9.118;2023-06-14T08:02:22;19.60;80.20
12827;DHT22;66927;48.812;9.118;2023-06-14T08:04:48;19.70;79.60
12827;DHT22;66927;48.812;9.118;2023-06-14T08:07:14;19.70;79.90
12827;DHT22;66927;48.812;9.118;2023-06-14T08:09:40;19.70;80.60
12827;DHT22;66927;48.812;9.118;2023-06-14T08:12:06;19.80;80.40
12827;DHT22;66927;48.812;9.118;2023-06-14T08:14:35;19.80;80.80
12827;DHT22;66927;48.812;9.118;2023-06-14T08:17:00;19.90;80.80
12827;DHT22;66927;48.812;9.118;2023-06-14T08:19:26;19.90;80.60
12827;DHT22;66927;48.812;9.118;2023-06-14T08:21:52;20.00;80.30
12827;DHT22;66927;48.812;9.118;2023-06-14T08:24:21;20.00;81.20
12827;DHT22;66927;48.812;9.118;2023-06-14T08:26:50;20.10;81.00
12827;DHT22;66927;48.812;9.118;2023-06-14T08:29:15;20.10;80.40
12827;DHT22;66927;48.812;9.118;2023-06-14T08:31:41;20.10;80.30
12827;DHT22;66927;48.812;9.118;2023-06-14T08:34:06;20.10;81.00
12827;DHT22;66927;48.812;9.118;2023-06-14T08:36:32;20.20;80.50
12827;DHT22;66927;48.812;9.118;2023-06-14T08:38:58;20.20;80.10
12827;DHT22;66927;48.812;9.118;2023-06-14T08:41:23;20.30;79.90
12827;DHT22;66927;48.812;9.118;2023-06-14T08:43:52;20.30;79.90
12827;DHT22;66927;48.812;9.118;2023-06-14T08:46:18;20.30;80.50
12827;DHT22;66927;48.812;9.118;2023-06-14T08:48:51;20.40;80.70
12827;DHT22;66927;48.812;9.118;2023-06-14T08:51:20;20.40;80.60
12827;DHT22;66927;48.812;9.118;2023-06-14T08:53:54;20.50;80.70
12827;DHT22;66927;48.812;9.118;2023-06-14T08:56:26;20.50;81.30
12827;DHT22;66927;48.812;9.118;2023-06-14T08:58:54;20.50;81.20
12827;DHT22;66927;48.812;9.118;2023-06-14T09:01:20;20.60;81.30
12827;DHT22;66927;48.812;9.118;2023-06-14T09:03:48;20.70;80.40
12827;DHT22;66927;48.812;9.118;2023-06-14T09:06:14;20.70;80.00
12827;DHT22;66927;48.812;9.118;2023-06-14T09:08:42;20.80;80.40
12827;DHT22;66927;48.812;9.118;2023-06-14T09:11:10;20.80;80.50
12827;DHT22;66927;48.812;9.118;2023-06-14T09:13:36;20.90;81.00
12827;DHT22;66927;48.812;9.118;2023-06-14T09:16:03;21.00;80.70
12827;DHT22;66927;48.812;9.118;2023-06-14T09:21:08;21.00;79.70
12827;DHT22;66927;48.812;9.118;2023-06-14T09:23:40;21.10;79.90
12827;DHT22;66927;48.812;9.118;2023-06-14T09:26:10;21.10;79.80
12827;DHT22;66927;48.812;9.118;2023-06-14T09:28:46;21.10;79.20
12827;DHT22;66927;48.812;9.118;2023-06-14T09:31:17;21.20;79.00
12827;DHT22;66927;48.812;9.118;2023-06-14T09:33:45;21.20;78.30
12827;DHT22;66927;48.812;9.118;2023-06-14T09:36:16;21.30;78.00
12827;DHT22;66927;48.812;9.118;2023-06-14T09:41:27;21.40;78.00
12827;DHT22;66927;48.812;9.118;2023-06-14T09:43:56;21.40;77.40
12827;DHT22;66927;48.812;9.118;2023-06-14T09:46:26;21.50;77.60
12827;DHT22;66927;48.812;9.118;2023-06-14T09:48:52;21.50;78.40
12827;DHT22;66927;48.812;9.118;2023-06-14T09:51:19;21.50;78.00
12827;DHT22;66927;48.812;9.118;2023-06-14T09:53:47;21.50;77.40
12827;DHT22;66927;48.812;9.118;2023-06-14T09:56:17;21.60;77.40
12827;DHT22;66927;48.812;9.118;2023-06-14T09:58:47;21.60;77.20
12827;DHT22;66927;48.812;9.118;2023-06-14T10:01:15;21.60;77.40
12827;DHT22;66927;48.812;9.118;2023-06-14T10:03:43;21.60;77.90
12827;DHT22;66927;48.812;9.118;2023-06-14T10:06:10;21.70;78.40
12827;DHT22;66927;48.812;9.118;2023-06-14T10:08:36;21.80;76.00
12827;DHT22;66927;48.812;9.118;2023-06-14T10:11:03;21.80;75.50
12827;DHT22;66927;48.812;9.118;2023-06-14T10:13:32;22.00;75.50
12827;DHT22;66927;48.812;9.118;2023-06-14T10:16:19;22.00;76.50
12827;DHT22;66927;48.812;9.118;2023-06-14T10:24:32;22.20;72.60
12827;DHT22;66927;48.812;9.118;2023-06-14T10:26:59;22.20;72.30
12827;DHT22;66927;48.812;9.118;2023-06-14T10:29:27;22.30;68.80
12827;DHT22;66927;48.812;9.118;2023-06-14T10:31:58;22.40;69.20
12827;DHT22;66927;48.812;9.118;2023-06-14T10:34:25;22.40;67.90
12827;DHT22;66927;48.812;9.118;2023-06-14T10:37:01;22.30;69.70
12827;DHT22;66927;48.812;9.118;2023-06-14T10:39:31;22.20;71.80
12827;DHT22;66927;48.812;9.118;2023-06-14T10:41:57;22.20;72.10
12827;DHT22;66927;48.812;9.118;2023-06-14T10:46:57;22.30;70.40
12827;DHT22;66927;48.812;9.118;2023-06-14T10:49:41;22.30;69.90
12827;DHT22;66927;48.812;9.118;2023-06-14T10:52:09;22.30;68.00
12827;DHT22;66927;48.812;9.118;2023-06-14T10:55:12;22.20;68.30
12827;DHT22;66927;48.812;9.118;2023-06-14T10:57:55;22.20;70.10
12827;DHT22;66927;48.812;9.118;2023-06-14T11:00:25;22.20;71.00
12827;DHT22;66927;48.812;9.118;2023-06-14T11:11:13;22.40;71.40
12827;DHT22;66927;48.812;9.118;2023-06-14T11:13:41;22.50;69.10
12827;DHT22;66927;48.812;9.118;2023-06-14T11:16:12;22.70;70.10
12827;DHT22;66927;48.812;9.118;2023-06-14T11:18:38;22.80;70.00
12827;DHT22;66927;48.812;9.118;2023-06-14T11:21:03;22.90;68.80
12827;DHT22;66927;48.812;9.118;2023-06-14T11:23:30;23.00;69.20
12827;DHT22;66927;48.812;9.118;2023-06-14T11:25:55;23.10;68.90
12827;DHT22;66927;48.812;9.118;2023-06-14T11:28:21;23.30;67.30
12827;DHT22;66927;48.812;9.118;2023-06-14T11:30:49;23.30;67.00
12827;DHT22;66927;48.812;9.118;2023-06-14T11:33:24;23.30;65.40
12827;DHT22;66927;48.812;9.118;2023-06-14T11:35:51;23.20;64.80
12827;DHT22;66927;48.812;9.118;2023-06-14T11:38:16;23.20;65.00
12827;DHT22;66927;48.812;9.118;2023-06-14T11:40:42;23.20;65.30
12827;DHT22;66927;48.812;9.118;2023-06-14T11:43:08;23.30;65.30
12827;DHT22;66927;48.812;9.118;2023-06-14T11:45:33;23.40;64.40
12827;DHT22;66927;48.812;9.118;2023-06-14T11:47:59;23.40;63.40
12827;DHT22;66927;48.812;9.118;2023-06-14T11:50:26;23.30;65.00
12827;DHT22;66927;48.812;9.118;2023-06-14T11:52:57;23.40;65.80
12827;DHT22;66927;48.812;9.118;2023-06-14T11:55:23;23.50;66.00
12827;DHT22;66927;48.812;9.118;2023-06-14T11:57:49;23.60;65.50
12827;DHT22;66927;48.812;9.118;2023-06-14T12:00:15;23.60;65.70
12827;DHT22;66927;48.812;9.118;2023-06-14T12:02:42;23.70;65.30
12827;DHT22;66927;48.812;9.118;2023-06-14T12:05:08;23.80;65.60
12827;DHT22;66927;48.812;9.118;2023-06-14T12:07:36;23.80;66.10
12827;DHT22;66927;48.812;9.118;2023-06-14T12:12:35;24.10;64.70
12827;DHT22;66927;48.812;9.118;2023-06-14T12:15:03;24.10;65.50
12827;DHT22;66927;48.812;9.118;2023-06-14T12:17:32;24.20;64.10
12827;DHT22;66927;48.812;9.118;2023-06-14T12:19:59;24.20;63.70
12827;DHT22;66927;48.812;9.118;2023-06-14T12:22:25;24.30;63.90
12827;DHT22;66927;48.812;9.118;2023-06-14T12:24:53;24.30;63.80
12827;DHT22;66927;48.812;9.118;2023-06-14T12:27:21;24.40;64.20
12827;DHT22;66927;48.812;9.118;2023-06-14T12:29:59;24.40;64.00
12827;DHT22;66927;48.812;9.118;2023-06-14T12:32:25;24.40;64.20
12827;DHT22;66927;48.812;9.118;2023-06-14T12:34:50;24.50;64.20
12827;DHT22;66927;48.812;9.118;2023-06-14T12:37:16;24.50;64.00
12827;DHT22;66927;48.812;9.118;2023-06-14T12:39:42;24.50;64.60
12827;DHT22;66927;48.812;9.118;2023-06-14T12:42:07;24.50;63.80
12827;DHT22;66927;48.812;9.118;2023-06-14T12:44:34;24.50;63.30
12827;DHT22;66927;48.812;9.118;2023-06-14T12:47:06;24.60;63.30
12827;DHT22;66927;48.812;9.118;2023-06-14T12:49:31;24.50;62.70
12827;DHT22;66927;48.812;9.118;2023-06-14T12:51:57;24.60;63.00
12827;DHT22;66927;48.812;9.118;2023-06-14T12:54:23;24.60;63.10
12827;DHT22;66927;48.812;9.118;2023-06-14T12:56:51;24.60;61.80
12827;DHT22;66927;48.812;9.118;2023-06-14T12:59:17;24.60;62.20
12827;DHT22;66927;48.812;9.118;2023-06-14T13:01:43;24.60;63.40
12827;DHT22;66927;48.812;9.118;2023-06-14T13:04:10;24.70;63.10
12827;DHT22;66927;48.812;9.118;2023-06-14T13:06:36;24.50;62.30
12827;DHT22;66927;48.812;9.118;2023-06-14T13:09:02;24.50;63.50
12827;DHT22;66927;48.812;9.118;2023-06-14T13:11:29;24.60;63.10
12827;DHT22;66927;48.812;9.118;2023-06-14T13:13:55;24.60;63.50
12827;DHT22;66927;48.812;9.118;2023-06-14T13:16:21;24.70;64.40
12827;DHT22;66927;48.812;9.118;2023-06-14T13:18:47;24.70;64.10
12827;DHT22;66927;48.812;9.118;2023-06-14T13:21:14;24.80;64.50
12827;DHT22;66927;48.812;9.118;2023-06-14T13:23:39;24.90;64.10
12827;DHT22;66927;48.812;9.118;2023-06-14T13:26:05;24.90;62.30
12827;DHT22;66927;48.812;9.118;2023-06-14T13:28:32;24.70;62.80
12827;DHT22;66927;48.812;9.118;2023-06-14T13:30:59;24.80;63.20
12827;DHT22;66927;48.812;9.118;2023-06-14T13:33:26;24.80;62.70
12827;DHT22;66927;48.812;9.118;2023-06-14T13:35:51;24.70;62.80
12827;DHT22;66927;48.812;9.118;2023-06-14T13:38:18;24.60;63.00
12827;DHT22;66927;48.812;9.118;2023-06-14T13:40:43;24.50;63.00
12827;DHT22;66927;48.812;9.118;2023-06-14T13:43:09;24.50;63.20
12827;DHT22;66927;48.812;9.118;2023-06-14T13:45:36;24.50;62.40
12827;DHT22;66927;48.812;9.118;2023-06-14T13:48:01;24.50;63.40
12827;DHT22;66927;48.812;9.118;2023-06-14T13:50:27;24.60;62.80
12827;DHT22;66927;48.812;9.118;2023-06-14T13:52:53;24.60;62.60
12827;DHT22;66927;48.812;9.118;2023-06-14T13:55:19;24.70;62.00
12827;DHT22;66927;48.812;9.118;2023-06-14T13:57:44;24.70;61.80
12827;DHT22;66927;48.812;9.118;2023-06-14T14:00:11;24.60;61.60
12827;DHT22;66927;48.812;9.118;2023-06-14T14:02:37;24.50;62.20
12827;DHT22;66927;48.812;9.118;2023-06-14T14:05:04;24.40;62.70
12827;DHT22;66927;48.812;9.118;2023-06-14T14:07:30;24.60;64.20
12827;DHT22;66927;48.812;9.118;2023-06-14T14:09:56;24.70;64.40
12827;DHT22;66927;48.812;9.118;2023-06-14T14:12:23;24.80;63.70
12827;DHT22;66927;48.812;9.118;2023-06-14T14:14:49;24.80;63.60
12827;DHT22;66927;48.812;9.118;2023-06-14T14:17:16;24.80;62.90
12827;DHT22;66927;48.812;9.118;2023-06-14T14:19:41;24.80;64.00
12827;DHT22;66927;48.812;9.118;2023-06-14T14:22:07;24.90;64.00
12827;DHT22;66927;48.812;9.118;2023-06-14T14:24:33;24.90;64.00
12827;DHT22;66927;48.812;9.118;2023-06-14T14:26:58;24.90;64.30
12827;DHT22;66927;48.812;9.118;2023-06-14T14:29:25;24.90;63.30
12827;DHT22;66927;48.812;9.118;2023-06-14T14:31:54;25.00;63.10
12827;DHT22;66927;48.812;9.118;2023-06-14T14:34:20;25.00;62.30
12827;DHT22;66927;48.812;9.118;2023-06-14T14:36:46;24.90;62.00
12827;DHT22;66927;48.812;9.118;2023-06-14T14:39:11;24.90;63.10
12827;DHT22;66927;48.812;9.118;2023-06-14T14:41:37;24.90;62.10
12827;DHT22;66927;48.812;9.118;2023-06-14T14:44:04;24.80;62.50
12827;DHT22;66927;48.812;9.118;2023-06-14T14:46:31;24.90;63.50
12827;DHT22;66927;48.812;9.118;2023-06-14T14:48:59;24.90;63.70
12827;DHT22;66927;48.812;9.118;2023-06-14T14:51:24;25.00;63.20
12827;DHT22;66927;48.812;9.118;2023-06-14T14:53:50;25.00;63.10
12827;DHT22;66927;48.812;9.118;2023-06-14T14:56:16;25.00;63.20
12827;DHT22;66927;48.812;9.118;2023-06-14T14:58:42;25.00;62.80
12827;DHT22;66927;48.812;9.118;2023-06-14T15:01:10;25.00;63.30
12827;DHT22;66927;48.812;9.118;2023-06-14T15:03:36;24.90;63.60
12827;DHT22;66927;48.812;9.118;2023-06-14T15:06:01;24.90;63.90
12827;DHT22;66927;48.812;9.118;2023-06-14T15:08:28;24.90;63.40
12827;DHT22;66927;48.812;9.118;2023-06-14T15:10:54;24.90;63.90
12827;DHT22;66927;48.812;9.118;2023-06-14T15:13:19;24.90;64.20
12827;DHT22;66927;48.812;9.118;2023-06-14T15:15:45;24.90;64.50
12827;DHT22;66927;48.812;9.118;2023-06-14T15:18:11;25.00;64.60
12827;DHT22;66927;48.812;9.118;2023-06-14T15:20:36;25.00;64.60
12827;DHT22;66927;48.812;9.118;2023-06-14T15:23:02;25.00;63.40
12827;DHT22;66927;48.812;9.118;2023-06-14T15:25:30;25.00;62.40
12827;DHT22;66927;48.812;9.118;2023-06-14T15:27:58;24.90;63.10
12827;DHT22;66927;48.812;9.118;2023-06-14T15:30:23;24.90;63.20
12827;DHT22;66927;48.812;9.118;2023-06-14T15:32:49;24.90;63.30
12827;DHT22;66927;48.812;9.118;2023-06-14T15:35:16;25.00;64.30
12827;DHT22;66927;48.812;9.118;2023-06-14T15:37:43;25.00;64.40
12827;DHT22;66927;48.812;9.118;2023-06-14T15:40:09;25.00;64.80
12827;DHT22;66927;48.812;9.118;2023-06-14T15:42:35;25.00;64.10
12827;DHT22;66927;48.812;9.118;2023-06-14T15:45:00;25.00;67.00
12827;DHT22;66927;48.812;9.118;2023-06-14T15:47:26;24.90;70.80
12827;DHT22;66927;48.812;9.118;2023-06-14T15:49:52;24.90;67.50
12827;DHT22;66927;48.812;9.118;2023-06-14T15:52:17;24.90;70.70
12827;DHT22;66927;48.812;9.118;2023-06-14T15:54:43;24.80;67.70